Time;durP1;ratioP1;P1;durP2;ratioP2;P2;SDS_P1;SDS_P2;PMS_P1;PMS_P2;Temp;Humidity;BMP_temperature;BMP_pressure;BME280_temperature;BME280_humidity;BME280_pressure;Samples;Min_cycle;Max_cycle;Signal;HPM_P1;HPM_P2
2020/12/10 00:01:04;;;;;;;12.00;9.90;;;5.70;99.90;;;;;;5074481;28;20210;-88
2020/12/10 00:06:52;;;;;;;20.60;10.60;;;5.50;99.90;;;;;;5055677;28;20536;-88
2020/12/10 01:00:19;;;;;;;8.97;8.07;;;4.90;99.90;;;;;;5055712;28;20190;-88
2020/12/10 01:06:55;;;;;;;12.80;8.60;;;4.70;99.90;;;;;;5055015;28;20155;-89
2020/12/10 01:13:30;;;;;;;10.77;8.27;;;4.90;99.90;;;;;;5054781;28;20147;-89
2020/12/10 01:19:38;;;;;;;8.53;7.57;;;5.00;99.90;;;;;;5054387;28;20210;-89
2020/12/10 01:29:01;;;;;;;8.67;6.20;;;5.30;99.90;;;;;;5053527;28;20167;-89
2020/12/10 01:38:21;;;;;;;7.27;6.57;;;5.60;99.90;;;;;;5054123;28;20172;-89
2020/12/10 01:44:21;;;;;;;8.37;6.77;;;5.60;99.90;;;;;;5054745;28;20270;-89
2020/12/10 01:50:19;;;;;;;6.80;6.00;;;5.40;99.90;;;;;;5054133;28;20190;-89
2020/12/10 02:01:02;;;;;;;9.43;6.70;;;5.50;99.90;;;;;;5054399;28;20226;-89
2020/12/10 02:03:30;;;;;;;7.50;6.67;;;5.50;99.90;;;;;;5040116;28;20601;-89
2020/12/10 02:05:55;;;;;;;10.93;7.60;;;5.40;99.90;;;;;;5045603;28;20186;-91
2020/12/10 02:08:21;;;;;;;7.27;6.57;;;5.40;99.90;;;;;;5042811;28;20247;-89
2020/12/10 02:10:47;;;;;;;8.10;7.30;;;5.30;99.90;;;;;;5053908;28;20183;-89
2020/12/10 02:13:33;;;;;;;8.03;7.23;;;5.30;99.90;;;;;;5044569;28;20184;-89
2020/12/10 02:19:42;;;;;;;9.20;7.80;;;5.20;99.90;;;;;;5056964;28;20234;-89
2020/12/10 02:25:35;;;;;;;7.73;6.10;;;5.30;99.90;;;;;;5077566;28;20242;-89
2020/12/10 02:28:12;;;;;;;6.60;5.90;;;5.40;99.90;;;;;;5067713;28;20567;-88
2020/12/10 02:30:40;;;;;;;7.90;6.50;;;5.30;99.90;;;;;;5040364;28;20187;-89
2020/12/10 02:33:07;;;;;;;8.40;6.20;;;5.30;99.90;;;;;;5056870;28;20632;-89
2020/12/10 02:36:01;;;;;;;8.07;6.50;;;5.30;99.90;;;;;;5040069;28;20211;-89
2020/12/10 02:41:58;;;;;;;7.13;5.53;;;5.20;99.90;;;;;;5057230;28;20199;-89
2020/12/10 02:47:55;;;;;;;9.10;6.30;;;5.10;99.90;;;;;;5057031;28;20182;-88
2020/12/10 02:57:10;;;;;;;7.13;5.33;;;5.50;99.90;;;;;;5055638;28;20250;-88
2020/12/10 03:25:04;;;;;;;7.80;5.57;;;5.60;99.90;;;;;;5053909;28;20264;-89
2020/12/10 03:27:29;;;;;;;8.60;5.97;;;5.60;99.90;;;;;;5021987;28;20620;-89
2020/12/10 03:29:55;;;;;;;8.33;6.27;;;5.70;99.90;;;;;;5039090;28;20322;-89
2020/12/10 03:32:22;;;;;;;10.40;6.67;;;5.70;99.90;;;;;;5022029;28;20195;-89
2020/12/10 03:34:47;;;;;;;8.43;6.30;;;5.80;99.90;;;;;;5022079;28;20195;-89
2020/12/10 03:37:13;;;;;;;10.07;6.20;;;5.90;99.90;;;;;;5038002;28;20187;-89
2020/12/10 03:40:09;;;;;;;7.13;5.80;;;6.00;99.90;;;;;;5038153;28;20566;-89
2020/12/10 03:50:22;;;;;;;8.83;5.83;;;6.30;99.90;;;;;;5055359;28;20167;-89
2020/12/10 03:56:13;;;;;;;8.00;6.20;;;6.30;99.90;;;;;;5056039;28;20154;-89
2020/12/10 03:58:38;;;;;;;9.07;6.50;;;6.40;99.90;;;;;;5021589;28;20544;-89
2020/12/10 04:01:04;;;;;;;9.63;6.60;;;6.40;99.90;;;;;;5021034;28;20207;-89
2020/12/10 04:03:59;;;;;;;9.47;6.77;;;6.40;99.90;;;;;;5021241;28;20180;-89
2020/12/10 04:09:47;;;;;;;13.03;8.00;;;6.40;99.90;;;;;;5055510;28;20159;-89
2020/12/10 04:12:12;;;;;;;10.00;6.90;;;6.40;99.90;;;;;;5020807;28;20183;-89
2020/12/10 04:14:38;;;;;;;10.83;6.40;;;6.30;99.90;;;;;;5020577;28;20629;-89
2020/12/10 04:17:25;;;;;;;16.67;8.13;;;6.40;99.90;;;;;;5037651;28;20206;-89
2020/12/10 04:19:51;;;;;;;13.07;7.40;;;6.30;99.90;;;;;;5020627;28;20566;-89
2020/12/10 04:22:17;;;;;;;9.50;7.07;;;6.40;99.90;;;;;;5036969;28;20192;-89
2020/12/10 06:45:03;;;;;;;9.93;6.17;;;6.60;99.90;;;;;;5033720;28;20247;-89
2020/12/10 06:47:48;;;;;;;8.73;5.57;;;6.60;99.90;;;;;;5002886;28;20653;-89
2020/12/10 06:50:25;;;;;;;8.53;6.40;;;6.60;99.90;;;;;;5019384;28;20184;-87
2020/12/10 06:53:11;;;;;;;8.80;6.13;;;6.40;99.90;;;;;;5019060;28;20187;-89
2020/12/10 06:56:16;;;;;;;10.40;5.83;;;6.50;99.90;;;;;;5041563;28;20195;-89
2020/12/10 07:02:29;;;;;;;9.17;5.63;;;6.70;99.90;;;;;;5050951;28;20159;-89
2020/12/10 07:15:53;;;;;;;9.33;5.90;;;7.10;99.90;;;;;;5059474;28;20212;-89
2020/12/10 07:21:53;;;;;;;9.43;6.23;;;7.20;99.90;;;;;;5036128;28;20175;-89
2020/12/10 07:38:09;;;;;;;7.43;6.70;;;7.20;99.90;;;;;;5015937;28;20644;-90
2020/12/10 10:20:53;;;;;;;13.67;9.60;;;6.00;99.90;;;;;;5153626;27;20299;-90
2020/12/10 10:23:31;;;;;;;14.67;10.00;;;6.10;99.90;;;;;;5067889;28;786240;-90
2020/12/10 10:25:58;;;;;;;13.47;8.93;;;6.60;99.90;;;;;;5079189;28;20230;-90
2020/12/10 10:28:47;;;;;;;12.23;9.40;;;7.00;99.90;;;;;;5112916;28;20248;-90
2020/12/10 10:31:14;;;;;;;15.93;9.80;;;7.40;99.90;;;;;;5077798;28;20184;-90
2020/12/10 10:33:41;;;;;;;12.00;9.63;;;7.80;99.90;;;;;;5095152;28;20644;-90
2020/12/10 10:36:07;;;;;;;17.17;9.90;;;8.20;99.90;;;;;;5095223;28;20208;-89
2020/12/10 10:38:33;;;;;;;12.70;9.47;;;8.60;99.90;;;;;;5078852;28;20174;-90
2020/12/10 10:40:59;;;;;;;14.13;9.33;;;9.00;99.90;;;;;;5080111;28;20237;-90
2020/12/10 10:43:24;;;;;;;11.50;9.80;;;9.10;99.90;;;;;;5078053;28;20201;-93
2020/12/10 10:45:51;;;;;;;10.17;9.00;;;9.00;99.90;;;;;;5061058;28;20646;-90
2020/12/10 10:48:18;;;;;;;10.77;8.93;;;9.00;99.90;;;;;;5094013;28;20748;-90
2020/12/10 10:50:45;;;;;;;13.93;9.20;;;9.00;99.90;;;;;;5112908;28;20204;-90
2020/12/10 10:53:11;;;;;;;11.50;8.10;;;8.70;99.90;;;;;;5095484;28;20176;-90
2020/12/10 10:55:38;;;;;;;11.10;9.23;;;8.60;99.90;;;;;;5077772;28;20178;-90
2020/12/10 10:58:04;;;;;;;10.13;8.23;;;8.60;99.90;;;;;;5079366;28;20186;-90
2020/12/10 11:00:33;;;;;;;18.83;9.73;;;8.60;99.90;;;;;;5093174;28;20220;-90
2020/12/10 11:03:19;;;;;;;19.97;9.73;;;8.30;99.90;;;;;;5094663;28;20203;-90
2020/12/10 11:05:47;;;;;;;19.60;10.13;;;8.20;99.90;;;;;;5090840;28;20157;-91
2020/12/10 11:08:50;;;;;;;18.80;9.70;;;8.10;99.90;;;;;;5113505;28;20672;-91
2020/12/10 11:11:39;;;;;;;13.47;9.37;;;8.00;99.90;;;;;;5113160;28;20181;-91
2020/12/10 11:14:22;;;;;;;14.17;10.30;;;8.00;99.90;;;;;;5079865;28;20170;-90
2020/12/10 11:16:51;;;;;;;16.33;8.93;;;8.00;99.90;;;;;;5097927;28;20165;-91
2020/12/10 11:22:38;;;;;;;19.87;9.63;;;8.30;99.90;;;;;;5080193;28;20208;-90
2020/12/10 11:28:38;;;;;;;12.67;9.53;;;8.40;99.90;;;;;;5089877;28;20173;-90
2020/12/10 11:34:32;;;;;;;17.13;10.17;;;8.90;99.90;;;;;;5077853;28;20730;-90
2020/12/10 11:40:26;;;;;;;14.10;8.83;;;9.10;99.90;;;;;;5042575;28;20322;-89
2020/12/10 11:42:52;;;;;;;19.97;9.63;;;9.20;99.90;;;;;;4989915;28;20744;-90
2020/12/10 11:45:21;;;;;;;12.23;9.30;;;9.30;99.90;;;;;;5019125;28;20215;-90
2020/12/10 11:47:48;;;;;;;14.57;10.00;;;9.70;99.90;;;;;;5021972;28;20174;-90
2020/12/10 11:50:21;;;;;;;13.10;9.13;;;10.50;99.90;;;;;;5041831;28;20177;-89
2020/12/10 11:52:52;;;;;;;11.55;9.07;;;11.80;99.90;;;;;;5027164;28;20224;-90
2020/12/10 11:55:18;;;;;;;15.27;8.68;;;13.10;99.90;;;;;;5037588;28;20180;-90
2020/12/10 11:57:46;;;;;;;12.68;8.60;;;14.00;99.90;;;;;;5019534;28;20174;-83
2020/12/10 12:00:12;;;;;;;13.07;8.32;;;15.40;99.90;;;;;;5000583;28;20625;-76
2020/12/10 12:02:40;;;;;;;11.88;9.20;;;14.70;99.90;;;;;;5017106;28;20187;-77
2020/12/10 12:05:09;;;;;;;12.88;9.23;;;14.50;99.90;;;;;;4999491;28;20187;-78
2020/12/10 12:07:38;;;;;;;19.58;9.20;;;15.20;99.90;;;;;;5033366;28;20202;-80
2020/12/10 12:10:06;;;;;;;11.65;8.30;;;15.40;99.90;;;;;;5028043;28;20183;-79
2020/12/10 12:12:51;;;;;;;12.32;8.65;;;15.50;99.90;;;;;;5075218;28;20178;-76
2020/12/10 12:15:17;;;;;;;10.43;8.95;;;15.10;99.90;;;;;;5059190;28;20174;-81
2020/12/10 12:17:45;;;;;;;9.70;7.80;;;14.70;99.90;;;;;;5060898;28;20167;-80
2020/12/10 12:20:12;;;;;;;10.32;7.93;;;13.80;99.90;;;;;;5062085;28;20310;-81
2020/12/10 12:22:38;;;;;;;12.80;9.68;;;14.10;99.90;;;;;;5052313;28;20187;-81
2020/12/10 12:25:05;;;;;;;11.75;8.85;;;14.20;99.90;;;;;;5042263;28;20602;-81
2020/12/10 12:27:31;;;;;;;10.32;8.00;;;14.90;99.90;;;;;;5059992;28;20195;-81
2020/12/10 12:29:58;;;;;;;10.43;7.90;;;14.80;99.90;;;;;;5075153;28;20186;-82
2020/12/10 12:32:25;;;;;;;11.05;7.85;;;15.10;99.90;;;;;;5098124;28;20170;-81
2020/12/10 12:34:51;;;;;;;9.68;8.25;;;14.50;99.90;;;;;;5047514;28;20277;-81
2020/12/10 12:37:16;;;;;;;10.18;8.20;;;13.90;99.90;;;;;;5070653;28;20649;-81
2020/12/10 12:39:42;;;;;;;11.05;7.78;;;12.90;99.90;;;;;;5074713;28;20360;-81
2020/12/10 12:42:12;;;;;;;12.85;8.80;;;12.80;99.90;;;;;;5074029;28;20214;-81
2020/12/10 12:44:40;;;;;;;13.30;9.15;;;12.90;99.90;;;;;;5074071;28;20182;-81
2020/12/10 12:47:08;;;;;;;9.63;8.00;;;13.10;99.90;;;;;;5075786;28;20237;-81
2020/12/10 12:49:35;;;;;;;12.68;8.30;;;14.10;99.90;;;;;;5057438;28;20194;-81
2020/12/10 12:52:09;;;;;;;20.02;8.10;;;14.00;99.90;;;;;;5074559;28;20271;-81
2020/12/10 12:54:35;;;;;;;10.98;8.85;;;13.50;99.90;;;;;;5042848;28;20202;-82
2020/12/10 12:57:01;;;;;;;10.90;8.77;;;13.10;99.90;;;;;;5058286;28;20272;-81
2020/12/10 12:59:26;;;;;;;9.60;7.65;;;12.70;99.90;;;;;;5040940;28;20210;-81
2020/12/10 13:01:56;;;;;;;12.38;8.15;;;12.70;99.90;;;;;;5060252;28;20231;-77
2020/12/10 13:04:23;;;;;;;11.32;8.23;;;11.80;99.90;;;;;;5077939;28;20154;-88
2020/12/10 13:06:50;;;;;;;16.60;8.80;;;11.00;99.90;;;;;;5058545;28;20181;-88
2020/12/10 13:09:17;;;;;;;14.63;8.20;;;10.50;99.90;;;;;;5059081;28;20612;-87
2020/12/10 13:11:44;;;;;;;12.32;9.50;;;10.00;99.90;;;;;;5041446;28;20175;-88
2020/12/10 13:14:30;;;;;;;10.53;8.40;;;9.60;99.90;;;;;;5058621;28;20174;-88
2020/12/10 13:16:57;;;;;;;12.18;8.55;;;9.50;99.90;;;;;;5058121;28;20181;-88
2020/12/10 13:19:22;;;;;;;13.27;8.43;;;9.10;99.90;;;;;;5073524;28;20222;-88
2020/12/10 13:22:09;;;;;;;12.70;8.87;;;8.70;99.90;;;;;;5041156;28;20210;-88
2020/12/10 13:24:35;;;;;;;15.93;9.13;;;8.70;99.90;;;;;;5074776;28;20167;-89
2020/12/10 13:27:01;;;;;;;13.60;9.03;;;8.60;99.90;;;;;;5058338;28;20506;-87
2020/12/10 13:29:27;;;;;;;17.33;8.80;;;8.60;99.90;;;;;;5041367;28;20650;-87
2020/12/10 13:32:13;;;;;;;13.40;8.20;;;8.40;99.90;;;;;;5060187;28;20530;-87
2020/12/10 13:34:59;;;;;;;12.80;8.50;;;8.20;99.90;;;;;;5057085;28;20327;-88
2020/12/10 13:37:24;;;;;;;17.43;8.47;;;8.10;99.90;;;;;;5066970;28;20181;-87
2020/12/10 13:39:51;;;;;;;11.27;8.27;;;8.10;99.90;;;;;;5060209;28;20214;-87
2020/12/10 13:42:18;;;;;;;13.90;7.60;;;8.10;99.90;;;;;;5094516;28;20186;-86
2020/12/10 13:44:47;;;;;;;13.33;8.30;;;8.10;99.90;;;;;;5044000;28;20170;-87
2020/12/10 13:47:21;;;;;;;11.10;8.10;;;8.00;99.90;;;;;;5064405;28;20158;-88
2020/12/10 13:49:52;;;;;;;10.60;7.73;;;8.10;99.90;;;;;;5095244;28;20260;-87
2020/12/10 13:52:18;;;;;;;12.20;8.43;;;8.10;99.90;;;;;;5076895;28;20204;-87
2020/12/10 13:54:44;;;;;;;12.27;8.60;;;8.10;99.90;;;;;;5076843;28;20174;-87
2020/12/10 13:57:11;;;;;;;14.67;7.73;;;8.00;99.90;;;;;;5076831;28;20185;-88
2020/12/10 13:59:39;;;;;;;11.83;7.50;;;8.00;99.90;;;;;;5077266;28;20547;-87
2020/12/10 14:02:07;;;;;;;11.23;7.63;;;8.00;99.90;;;;;;5043275;28;20191;-87
2020/12/10 14:04:32;;;;;;;12.37;7.30;;;8.10;99.90;;;;;;5076441;28;20174;-88
2020/12/10 14:06:58;;;;;;;17.23;7.37;;;7.80;99.90;;;;;;5043564;28;20174;-88
2020/12/10 14:09:29;;;;;;;12.53;7.47;;;7.80;99.90;;;;;;5059671;28;20189;-87
2020/12/10 14:12:00;;;;;;;13.30;8.40;;;7.70;99.90;;;;;;5066699;28;20211;-87
2020/12/10 14:14:28;;;;;;;13.63;7.73;;;7.70;99.90;;;;;;5078837;28;20170;-88
2020/12/10 14:16:54;;;;;;;9.67;7.53;;;7.70;99.90;;;;;;5114957;28;20176;-87
2020/12/10 14:19:23;;;;;;;11.50;7.73;;;7.70;99.90;;;;;;5079140;28;20201;-87
2020/12/10 14:21:52;;;;;;;12.30;7.83;;;7.60;99.90;;;;;;5066833;28;20189;-87
2020/12/10 14:24:18;;;;;;;10.93;7.93;;;7.60;99.90;;;;;;5084098;28;20169;-87
2020/12/10 14:26:51;;;;;;;11.90;7.53;;;7.70;99.90;;;;;;5050881;28;20181;-86
2020/12/10 14:29:20;;;;;;;11.87;8.47;;;7.70;99.90;;;;;;5066935;28;20185;-86
2020/12/10 14:31:46;;;;;;;13.50;8.33;;;7.70;99.90;;;;;;5112549;28;20186;-87
2020/12/10 14:34:12;;;;;;;14.67;9.50;;;7.60;99.90;;;;;;5096351;28;20182;-87
2020/12/10 14:36:38;;;;;;;17.23;9.70;;;7.50;99.90;;;;;;5070390;28;20179;-87
2020/12/10 14:39:04;;;;;;;23.33;8.97;;;7.40;99.90;;;;;;5063109;28;20202;-87
2020/12/10 14:41:29;;;;;;;17.27;9.53;;;7.40;99.90;;;;;;5062149;28;20321;-87
2020/12/10 14:43:55;;;;;;;12.20;8.60;;;7.40;99.90;;;;;;5079919;28;20205;-87
2020/12/10 14:46:20;;;;;;;16.43;8.60;;;7.40;99.90;;;;;;5063519;28;20171;-87
2020/12/10 14:48:51;;;;;;;17.80;9.47;;;7.40;99.90;;;;;;5062028;28;20273;-87
2020/12/10 14:51:26;;;;;;;15.47;9.50;;;7.20;99.90;;;;;;5078521;28;20679;-87
2020/12/10 14:53:53;;;;;;;19.17;9.97;;;7.20;99.90;;;;;;5061959;28;20167;-87
2020/12/10 14:56:45;;;;;;;15.70;10.33;;;7.20;99.90;;;;;;5061582;28;20178;-87
2020/12/10 14:59:10;;;;;;;19.10;10.67;;;7.20;99.90;;;;;;5061493;28;20209;-87
2020/12/10 15:01:39;;;;;;;16.57;9.97;;;7.30;99.90;;;;;;5062725;28;20171;-88
2020/12/10 15:04:05;;;;;;;14.83;9.87;;;7.30;99.90;;;;;;5065033;28;20178;-87
2020/12/10 15:06:31;;;;;;;18.07;10.17;;;7.20;99.90;;;;;;5067408;28;20181;-87
2020/12/10 15:08:56;;;;;;;14.57;10.07;;;7.20;99.90;;;;;;5069726;28;20178;-87
2020/12/10 15:11:45;;;;;;;19.27;9.97;;;7.00;99.90;;;;;;5085307;28;20224;-87
2020/12/10 15:14:13;;;;;;;17.07;10.57;;;7.00;99.90;;;;;;5104194;28;20185;-87
2020/12/10 15:17:11;;;;;;;17.93;12.10;;;6.90;99.90;;;;;;5089256;28;20564;-87
2020/12/10 15:19:37;;;;;;;13.20;10.57;;;6.70;99.90;;;;;;5069380;28;20210;-88
2020/12/10 15:22:02;;;;;;;17.13;10.20;;;6.70;99.90;;;;;;5052861;28;20212;-87
2020/12/10 15:24:28;;;;;;;16.57;10.83;;;6.60;99.90;;;;;;5069971;28;20623;-86
2020/12/10 15:26:54;;;;;;;22.23;11.30;;;6.70;99.90;;;;;;5052556;28;20216;-86
2020/12/10 15:29:41;;;;;;;17.80;11.37;;;6.70;99.90;;;;;;5082062;28;20631;-87
2020/12/10 15:32:16;;;;;;;18.63;11.17;;;6.70;99.90;;;;;;5084786;28;20258;-88
2020/12/10 15:35:03;;;;;;;16.92;12.07;;;6.70;99.90;;;;;;5080718;28;20418;-89
2020/12/10 15:37:28;;;;;;;15.83;10.73;;;6.70;99.90;;;;;;5049014;28;20559;-88
2020/12/10 15:39:54;;;;;;;21.67;10.83;;;6.70;99.90;;;;;;5046066;28;20291;-87
2020/12/10 15:42:50;;;;;;;18.30;11.40;;;6.70;99.90;;;;;;5043219;28;20178;-88
2020/12/10 15:45:16;;;;;;;27.03;10.47;;;6.70;99.90;;;;;;5063912;28;20174;-88
2020/12/10 15:48:10;;;;;;;14.80;9.97;;;6.70;99.90;;;;;;5059675;28;20175;-88
2020/12/10 15:50:37;;;;;;;16.33;10.80;;;6.60;99.90;;;;;;5045525;28;20189;-78
2020/12/10 15:53:04;;;;;;;19.80;11.77;;;6.60;99.90;;;;;;5074879;28;20696;-88
2020/12/10 15:55:38;;;;;;;15.33;11.27;;;6.70;99.90;;;;;;5060003;28;20543;-93
2020/12/10 15:58:06;;;;;;;14.13;10.83;;;6.70;99.90;;;;;;5043418;28;20186;-94
2020/12/10 16:00:37;;;;;;;15.23;10.70;;;6.60;99.90;;;;;;5060099;28;20228;-94
2020/12/10 16:03:03;;;;;;;14.47;10.27;;;6.50;99.90;;;;;;5044015;28;20181;-93
2020/12/10 16:05:28;;;;;;;16.97;11.40;;;6.40;99.90;;;;;;5059580;28;20179;-93
2020/12/10 16:07:54;;;;;;;17.87;11.37;;;6.40;99.90;;;;;;5060004;28;20170;-93
2020/12/10 16:10:40;;;;;;;14.40;10.67;;;6.40;99.90;;;;;;5048702;28;20197;-94
2020/12/10 16:13:08;;;;;;;17.83;12.23;;;6.30;99.90;;;;;;5043212;28;20620;-93
2020/12/10 16:15:55;;;;;;;15.10;10.97;;;6.20;99.90;;;;;;5056162;28;20171;-91
2020/12/10 16:18:20;;;;;;;17.03;11.40;;;6.10;99.90;;;;;;5085288;28;20173;-93
2020/12/10 16:20:48;;;;;;;19.23;11.93;;;6.10;99.90;;;;;;5080406;28;20206;-94
2020/12/10 16:23:29;;;;;;;18.90;10.90;;;6.10;99.90;;;;;;5064506;28;20659;-93
2020/12/10 16:25:55;;;;;;;19.73;10.43;;;6.00;99.90;;;;;;5051788;28;20166;-93
2020/12/10 16:28:21;;;;;;;16.20;10.80;;;5.80;99.90;;;;;;5026886;28;20627;-94
2020/12/10 16:30:46;;;;;;;20.47;11.07;;;5.80;99.90;;;;;;5059140;28;20175;-93
2020/12/10 16:33:13;;;;;;;17.70;11.87;;;5.70;99.90;;;;;;5042709;28;20174;-94
2020/12/10 16:35:38;;;;;;;17.83;11.60;;;5.70;99.90;;;;;;5071522;28;20846;-93
2020/12/10 16:38:04;;;;;;;18.80;11.33;;;5.80;99.90;;;;;;5062737;28;20182;-94
2020/12/10 16:40:30;;;;;;;21.07;11.83;;;5.80;99.90;;;;;;5114780;28;20202;-92
2020/12/10 16:42:56;;;;;;;22.40;12.23;;;5.80;99.90;;;;;;5098528;28;20181;-93
2020/12/10 16:45:22;;;;;;;20.27;11.80;;;5.70;99.90;;;;;;5079144;28;20688;-93
2020/12/10 16:47:50;;;;;;;19.43;12.23;;;5.80;99.90;;;;;;5073053;28;20288;-93
2020/12/10 16:50:17;;;;;;;21.20;12.43;;;5.90;99.90;;;;;;5086579;28;20177;-93
2020/12/10 16:52:42;;;;;;;20.73;11.17;;;5.90;99.90;;;;;;5064806;28;20166;-92
2020/12/10 16:55:08;;;;;;;43.23;12.00;;;5.90;99.90;;;;;;5080312;28;20171;-93
2020/12/10 16:57:34;;;;;;;15.97;10.73;;;5.70;99.90;;;;;;5084974;28;20205;-93
2020/12/10 16:59:59;;;;;;;22.20;12.10;;;5.60;99.90;;;;;;5060705;28;20236;-93
2020/12/10 17:02:27;;;;;;;24.47;11.23;;;5.50;99.90;;;;;;5049232;28;20265;-93
2020/12/10 17:04:53;;;;;;;20.33;12.03;;;5.40;99.90;;;;;;5049498;28;20174;-93
2020/12/10 17:07:19;;;;;;;19.50;12.27;;;5.40;99.90;;;;;;5029647;28;20173;-93
2020/12/10 17:09:45;;;;;;;18.83;11.63;;;5.50;99.90;;;;;;5065509;28;20182;-92
2020/12/10 17:12:10;;;;;;;18.83;11.10;;;5.40;99.90;;;;;;5098849;28;20174;-93
2020/12/10 17:14:37;;;;;;;24.33;12.47;;;5.40;99.90;;;;;;5292684;22;20266;-92
2020/12/10 17:19:38;;;;;;;17.30;11.70;;;5.10;99.90;;;;;;5162441;23;20227;-93
2020/12/10 17:22:06;;;;;;;18.93;12.23;;;5.00;99.90;;;;;;5020488;28;20222;-93
2020/12/10 17:24:32;;;;;;;20.70;12.87;;;4.90;99.90;;;;;;5003260;28;20176;-94
2020/12/10 17:26:57;;;;;;;20.37;12.40;;;4.90;99.90;;;;;;5028753;28;20211;-95
2020/12/10 17:29:24;;;;;;;22.27;12.67;;;4.80;99.90;;;;;;5025245;28;20242;-93
2020/12/10 17:31:52;;;;;;;30.87;13.70;;;4.80;99.90;;;;;;5040518;28;20260;-94
2020/12/10 17:34:17;;;;;;;19.37;13.00;;;4.70;99.90;;;;;;5019323;28;20441;-93
2020/12/10 17:36:43;;;;;;;27.10;13.70;;;4.70;99.90;;;;;;5002856;28;20175;-93
2020/12/10 17:39:09;;;;;;;28.27;14.90;;;4.70;99.90;;;;;;5003097;28;20184;-94
2020/12/10 17:41:35;;;;;;;32.80;15.57;;;4.60;99.90;;;;;;5019440;28;20172;-93
2020/12/10 17:44:00;;;;;;;27.03;15.37;;;4.70;99.90;;;;;;5038952;28;20580;-93
2020/12/10 17:46:26;;;;;;;29.33;15.10;;;4.70;99.90;;;;;;5037711;28;20173;-93
2020/12/10 17:48:52;;;;;;;28.70;14.70;;;4.70;99.90;;;;;;5021270;28;20180;-93
2020/12/10 17:51:18;;;;;;;28.17;15.67;;;4.50;99.90;;;;;;5017648;28;20184;-93
2020/12/10 17:53:45;;;;;;;31.27;15.10;;;4.50;99.90;;;;;;5018759;28;20488;-94
2020/12/10 17:56:11;;;;;;;29.03;14.37;;;4.60;99.90;;;;;;5019254;28;20168;-93
2020/12/10 17:58:36;;;;;;;26.93;15.70;;;4.50;99.90;;;;;;5018631;28;20648;-93
2020/12/10 18:01:06;;;;;;;26.60;15.33;;;4.50;99.90;;;;;;5021235;28;20187;-93
2020/12/10 18:03:32;;;;;;;28.50;15.90;;;4.30;99.90;;;;;;5017933;28;20529;-93
2020/12/10 18:05:58;;;;;;;19.73;14.50;;;4.30;99.90;;;;;;5017897;28;20182;-93
2020/12/10 18:08:24;;;;;;;23.97;15.87;;;4.30;99.90;;;;;;4985124;28;20168;-93
2020/12/10 18:10:50;;;;;;;28.40;16.23;;;4.40;99.90;;;;;;5001353;28;20291;-93
2020/12/10 18:13:15;;;;;;;26.77;15.00;;;4.30;99.90;;;;;;5001042;28;20200;-94
2020/12/10 18:15:41;;;;;;;28.40;16.10;;;4.30;99.90;;;;;;5018218;28;20167;-93
2020/12/10 18:18:07;;;;;;;26.80;15.47;;;4.30;99.90;;;;;;5018214;28;20196;-93
2020/12/10 18:20:33;;;;;;;40.83;16.17;;;4.30;99.90;;;;;;4984956;28;20679;-93
2020/12/10 18:22:58;;;;;;;29.20;14.33;;;4.30;99.90;;;;;;5017459;28;20208;-93
2020/12/10 18:25:24;;;;;;;23.77;14.83;;;4.30;99.90;;;;;;5018329;28;20180;-93
2020/12/10 18:27:50;;;;;;;22.67;14.70;;;4.40;99.90;;;;;;5018371;28;20199;-93
2020/12/10 18:30:16;;;;;;;22.77;15.33;;;4.30;99.90;;;;;;5018646;28;20657;-93
2020/12/10 18:32:42;;;;;;;25.13;14.63;;;4.20;99.90;;;;;;5018526;28;20255;-93
2020/12/10 18:35:08;;;;;;;22.97;15.10;;;4.30;99.90;;;;;;5019846;28;20198;-94
2020/12/10 18:37:35;;;;;;;28.43;16.30;;;4.30;99.90;;;;;;5035567;28;20172;-94
2020/12/10 18:40:02;;;;;;;27.20;14.67;;;4.40;99.90;;;;;;5020285;28;20175;-93
2020/12/10 18:42:28;;;;;;;25.77;15.37;;;4.40;99.90;;;;;;5021472;28;20179;-95
2020/12/10 18:44:54;;;;;;;26.43;14.73;;;4.40;99.90;;;;;;5023233;28;20652;-95
2020/12/10 18:47:20;;;;;;;24.93;15.57;;;4.40;99.90;;;;;;5026025;28;20180;-94
2020/12/10 18:49:46;;;;;;;24.93;15.47;;;4.30;99.90;;;;;;5040570;28;20608;-94
2020/12/10 18:52:14;;;;;;;28.73;17.07;;;4.40;99.90;;;;;;5025370;28;20176;-94
2020/12/10 18:54:44;;;;;;;24.53;15.77;;;4.30;99.90;;;;;;5025242;28;20183;-93
2020/12/10 18:57:10;;;;;;;26.00;15.80;;;4.30;99.90;;;;;;5024921;28;20182;-94
2020/12/10 18:59:35;;;;;;;25.40;15.03;;;4.20;99.90;;;;;;5024336;28;20184;-94
2020/12/10 19:02:08;;;;;;;21.63;14.83;;;4.20;99.90;;;;;;5027624;28;20211;-93
2020/12/10 19:04:35;;;;;;;28.30;15.60;;;4.30;99.90;;;;;;5041583;28;20207;-94
2020/12/10 19:07:01;;;;;;;26.07;15.60;;;4.30;99.90;;;;;;5024464;28;20192;-94
2020/12/10 19:09:26;;;;;;;27.20;15.53;;;4.40;99.90;;;;;;5014808;28;20290;-93
2020/12/10 19:11:52;;;;;;;25.80;15.77;;;4.40;99.90;;;;;;5004957;28;20243;-93
2020/12/10 19:14:18;;;;;;;24.77;15.83;;;4.50;99.90;;;;;;4987759;28;20195;-94
2020/12/10 19:16:44;;;;;;;27.20;15.93;;;4.50;99.90;;;;;;4987930;28;20285;-93
2020/12/10 19:19:10;;;;;;;34.63;16.50;;;4.60;99.90;;;;;;4989072;28;20325;-94
2020/12/10 19:21:36;;;;;;;27.27;15.47;;;4.60;99.90;;;;;;5041125;28;20184;-93
2020/12/10 19:24:01;;;;;;;24.97;15.90;;;4.60;99.90;;;;;;5021398;28;20206;-93
2020/12/10 19:26:27;;;;;;;31.10;16.77;;;4.70;99.90;;;;;;5008843;28;20176;-94
2020/12/10 19:28:53;;;;;;;26.03;16.47;;;4.70;99.90;;;;;;5009028;28;20177;-94
2020/12/10 19:31:21;;;;;;;29.03;16.10;;;4.70;99.90;;;;;;5001442;28;20172;-94
2020/12/10 19:33:46;;;;;;;28.73;16.83;;;4.70;99.90;;;;;;5002484;28;20184;-94
2020/12/10 19:36:12;;;;;;;26.23;16.43;;;4.80;99.90;;;;;;5018282;28;20172;-93
2020/12/10 19:38:38;;;;;;;30.53;17.00;;;4.90;99.90;;;;;;4987041;28;20176;-94
2020/12/10 19:41:04;;;;;;;27.00;16.13;;;4.80;99.90;;;;;;5004248;28;20183;-94
2020/12/10 19:43:29;;;;;;;28.63;16.43;;;4.90;99.90;;;;;;5040759;28;20212;-93
2020/12/10 19:45:56;;;;;;;30.83;17.47;;;4.80;99.90;;;;;;5024303;28;20171;-94
2020/12/10 19:48:22;;;;;;;30.57;16.93;;;4.70;99.90;;;;;;5007841;28;20220;-94
2020/12/10 19:50:48;;;;;;;32.53;17.63;;;4.80;99.90;;;;;;5023777;28;20201;-93
2020/12/10 19:53:14;;;;;;;25.40;16.20;;;4.80;99.90;;;;;;5021513;28;20170;-93
2020/12/10 19:55:40;;;;;;;25.77;15.43;;;4.80;99.90;;;;;;5043433;28;20232;-93
2020/12/10 19:58:07;;;;;;;29.13;17.20;;;4.80;99.90;;;;;;5043287;28;20198;-94
2020/12/10 20:00:33;;;;;;;30.07;16.87;;;4.80;99.90;;;;;;5010970;28;20164;-93
2020/12/10 20:02:59;;;;;;;34.33;17.33;;;4.70;99.90;;;;;;5043740;28;20328;-92
2020/12/10 20:05:27;;;;;;;29.10;17.90;;;4.70;99.90;;;;;;5023421;28;20183;-94
2020/12/10 20:07:54;;;;;;;26.30;16.23;;;4.70;99.90;;;;;;5028808;28;20172;-93
2020/12/10 20:10:21;;;;;;;34.67;17.57;;;4.70;99.90;;;;;;5026048;28;20200;-93
2020/12/10 20:12:47;;;;;;;31.17;17.30;;;4.50;99.90;;;;;;5022633;28;20168;-93
2020/12/10 20:15:13;;;;;;;29.47;17.10;;;4.40;99.90;;;;;;5039855;28;20179;-92
2020/12/10 20:17:39;;;;;;;29.53;16.83;;;4.40;99.90;;;;;;5022914;28;20558;-93
2020/12/10 20:20:04;;;;;;;32.43;17.20;;;4.30;99.90;;;;;;5023428;28;20637;-92
2020/12/10 20:22:31;;;;;;;28.37;17.27;;;4.20;99.90;;;;;;5040447;28;20183;-94
2020/12/10 20:24:58;;;;;;;28.87;17.23;;;4.20;99.90;;;;;;5024671;28;20176;-93
2020/12/10 20:27:24;;;;;;;29.83;17.23;;;4.10;99.90;;;;;;5030241;28;20180;-93
2020/12/10 20:29:52;;;;;;;28.67;17.50;;;4.10;99.90;;;;;;5025978;28;20208;-94
2020/12/10 20:32:18;;;;;;;28.70;17.77;;;4.10;99.90;;;;;;5031589;28;20176;-93
2020/12/10 20:34:44;;;;;;;28.53;17.53;;;4.20;99.90;;;;;;5024723;28;20629;-94
2020/12/10 20:37:10;;;;;;;29.67;17.80;;;4.10;99.90;;;;;;5008818;28;20172;-94
2020/12/10 20:39:38;;;;;;;28.77;17.63;;;4.20;99.90;;;;;;5024463;28;20198;-94
2020/12/10 20:42:04;;;;;;;33.43;17.10;;;4.10;99.90;;;;;;5025189;28;20180;-93
2020/12/10 20:44:30;;;;;;;33.60;18.20;;;4.10;99.90;;;;;;5026339;28;20176;-92
2020/12/10 20:46:57;;;;;;;26.83;17.83;;;4.10;99.90;;;;;;5022272;28;20175;-92
2020/12/10 20:49:23;;;;;;;38.73;19.13;;;3.90;99.90;;;;;;5020646;28;20211;-92
2020/12/10 20:51:49;;;;;;;31.70;17.73;;;4.00;99.90;;;;;;5020384;28;20195;-92
2020/12/10 20:54:15;;;;;;;26.57;17.67;;;3.80;99.90;;;;;;5003408;28;20202;-93
2020/12/10 20:56:45;;;;;;;27.10;17.40;;;3.80;99.90;;;;;;5002470;28;20176;-92
2020/12/10 20:59:10;;;;;;;29.27;17.70;;;3.70;99.90;;;;;;5037848;28;20200;-92
2020/12/10 21:01:37;;;;;;;34.07;17.30;;;3.70;99.90;;;;;;4985976;28;20175;-93
2020/12/10 21:04:03;;;;;;;32.90;17.13;;;3.70;99.90;;;;;;5000863;28;20179;-92
2020/12/10 21:06:30;;;;;;;32.70;17.13;;;3.70;99.90;;;;;;5018371;28;20180;-93
2020/12/10 21:08:56;;;;;;;33.63;17.17;;;3.80;99.90;;;;;;5018815;28;20176;-93
2020/12/10 21:11:23;;;;;;;36.80;18.80;;;3.80;99.90;;;;;;5001854;28;20176;-92
2020/12/10 21:13:50;;;;;;;27.77;15.33;;;3.80;99.90;;;;;;5018267;28;20208;-93
2020/12/10 21:16:16;;;;;;;28.30;16.50;;;3.90;99.90;;;;;;5018214;28;20259;-92